createdAt,value
2018-12-25T00:00:32.578Z,102267.14
2018-12-25T00:03:20.168Z,102264.03
2018-12-25T00:05:48.651Z,102257.00
2018-12-25T00:08:17.124Z,102268.62
2018-12-25T00:13:19.858Z,102271.21
2018-12-25T00:16:07.457Z,102269.75
2018-12-25T00:21:42.624Z,102266.08
2018-12-25T00:24:30.347Z,102273.13
2018-12-25T00:26:58.830Z,102266.83
2018-12-25T00:29:46.553Z,102259.42
2018-12-25T00:35:08.179Z,102253.37
2018-12-25T00:37:36.665Z,102250.63
2018-12-25T00:40:45.050Z,102255.86
2018-12-25T00:45:47.645Z,102261.28
2018-12-25T00:48:35.244Z,102262.80
2018-12-25T00:51:03.712Z,102256.67
2018-12-25T00:53:32.196Z,102257.20
2018-12-25T00:56:00.666Z,102251.85
2018-12-25T00:58:48.490Z,102255.14
2018-12-25T01:01:16.963Z,102248.78
2018-12-25T01:04:04.688Z,102251.12
2018-12-25T01:06:33.161Z,102256.76
2018-12-25T01:09:01.642Z,102258.03
2018-12-25T01:11:49.244Z,102258.80
2018-12-25T01:14:36.965Z,102256.27
2018-12-25T01:17:24.693Z,102265.20
2018-12-25T01:19:53.166Z,102255.36
2018-12-25T01:22:21.650Z,102261.99
2018-12-25T01:33:29.203Z,102246.33
2018-12-25T01:39:44.372Z,102246.61
2018-12-25T01:42:12.845Z,102236.64
2018-12-25T01:44:41.323Z,102242.37
2018-12-25T01:49:57.537Z,102234.02
2018-12-25T01:52:45.126Z,102237.05
2018-12-25T01:55:13.607Z,102243.59
2018-12-25T01:58:01.197Z,102238.58
2018-12-25T02:00:29.677Z,102241.33
2018-12-25T02:02:58.149Z,102237.58
2018-12-25T02:05:45.973Z,102233.16
2018-12-25T02:08:14.446Z,102227.56
2018-12-25T02:10:42.924Z,102223.56
2018-12-25T02:13:11.395Z,102214.39
2018-12-25T02:15:59.290Z,102219.53
2018-12-25T02:18:27.766Z,102216.55
2018-12-25T02:20:56.248Z,102214.16
2018-12-25T02:23:43.964Z,102220.75
2018-12-25T02:26:31.563Z,102222.95
2018-12-25T02:29:19.290Z,102223.05
2018-12-25T02:31:47.763Z,102228.02
2018-12-25T02:34:16.240Z,102237.63
2018-12-25T02:37:03.968Z,102238.30
2018-12-25T02:39:32.450Z,102233.78
2018-12-25T02:45:00.779Z,102225.38
2018-12-25T02:47:41.304Z,102224.94
2018-12-25T02:50:09.794Z,102228.25
2018-12-25T02:52:38.262Z,102237.77
2018-12-25T02:55:25.988Z,102225.44
2018-12-25T02:57:54.456Z,102217.39
2018-12-25T03:00:42.282Z,102212.39
2018-12-25T03:03:10.752Z,102216.70
2018-12-25T03:05:58.577Z,102212.25
2018-12-25T03:08:46.304Z,102206.91
2018-12-25T03:11:34.031Z,102212.39
2018-12-25T03:14:21.842Z,102212.20
2018-12-25T03:17:09.674Z,102206.41
2018-12-25T03:22:44.830Z,102211.02
2018-12-25T03:25:32.557Z,102220.75
2018-12-25T03:33:22.334Z,102207.66
2018-12-25T03:36:10.049Z,102200.41
2018-12-25T03:38:38.527Z,102204.80
2018-12-25T03:43:41.320Z,102197.39
2018-12-25T03:46:09.804Z,102189.59
2018-12-25T03:48:38.273Z,102180.42
2018-12-25T03:51:06.757Z,102186.47
2018-12-25T03:53:54.567Z,102185.56
2018-12-25T03:58:57.398Z,102187.50
2018-12-25T04:01:45.126Z,102195.66
2018-12-25T04:04:32.847Z,102190.63
2018-12-25T04:07:20.676Z,102189.27
2018-12-25T04:10:08.490Z,102183.16
2018-12-25T04:12:36.973Z,102179.52
2018-12-25T04:15:45.368Z,102179.02
2018-12-25T04:18:32.964Z,102175.15
2018-12-25T04:21:20.785Z,102175.70
2018-12-25T04:24:08.377Z,102177.59
2018-12-25T04:29:10.945Z,102170.30
2018-12-25T04:31:58.668Z,102170.24
2018-12-25T04:37:53.041Z,102173.39
2018-12-25T04:40:40.759Z,102182.48
2018-12-25T04:43:09.242Z,102180.45
2018-12-25T04:45:37.719Z,102187.91
2018-12-25T04:48:06.203Z,102198.72
2018-12-25T04:50:54.013Z,102198.31
2018-12-25T04:53:22.497Z,102192.46
2018-12-25T04:56:10.218Z,102194.90
2018-12-25T04:58:57.946Z,102192.80
2018-12-25T05:01:45.667Z,102198.66
2018-12-25T05:07:07.108Z,102194.71
2018-12-25T05:09:35.589Z,102184.55
2018-12-25T05:12:04.062Z,102190.95
2018-12-25T05:14:51.789Z,102197.84
2018-12-25T05:17:20.271Z,102191.77
2018-12-25T05:19:48.745Z,102192.68
2018-12-25T05:22:17.220Z,102192.81
2018-12-25T05:24:45.699Z,102201.91
2018-12-25T05:27:14.470Z,102192.61
2018-12-25T05:29:42.945Z,102188.81
2018-12-25T05:32:11.412Z,102186.17
2018-12-25T05:34:39.894Z,102183.83
2018-12-25T05:37:27.476Z,102195.28
2018-12-25T05:40:15.206Z,102184.34
2018-12-25T05:42:43.682Z,102183.05
2018-12-25T05:45:12.160Z,102166.78
2018-12-25T05:47:59.898Z,102161.45
2018-12-25T05:50:47.616Z,102156.41
2018-12-25T05:53:35.348Z,102178.32
2018-12-25T05:56:23.172Z,102169.78
2018-12-25T06:01:44.925Z,102186.48
2018-12-25T06:04:13.408Z,102190.28
2018-12-25T06:06:41.878Z,102189.30
2018-12-25T06:09:10.360Z,102171.83
2018-12-25T06:14:26.275Z,102170.86
2018-12-25T06:19:42.301Z,102172.18
2018-12-25T06:22:29.948Z,102172.98
2018-12-25T06:25:17.677Z,102174.56
2018-12-25T06:28:05.398Z,102171.03
2018-12-25T06:30:33.881Z,102175.81
2018-12-25T06:33:21.613Z,102171.77
2018-12-25T06:38:43.829Z,102165.80
2018-12-25T06:41:12.308Z,102169.52
2018-12-25T06:43:40.808Z,102175.94
2018-12-25T06:46:09.263Z,102175.83
2018-12-25T06:48:56.850Z,102169.86
2018-12-25T06:51:25.334Z,102177.40
2018-12-25T06:53:53.812Z,102172.22
2018-12-25T06:56:41.499Z,102170.72
2018-12-25T06:59:09.985Z,102158.66
2018-12-25T07:01:57.708Z,102157.75
2018-12-25T07:04:45.433Z,102151.59
2018-12-25T07:07:33.153Z,102144.75
2018-12-25T07:10:01.641Z,102147.00
2018-12-25T07:12:30.107Z,102148.77
2018-12-25T07:15:17.932Z,102158.32
2018-12-25T07:18:05.651Z,102168.41
2018-12-25T07:20:34.134Z,102166.81
2018-12-25T07:23:02.609Z,102160.75
2018-12-25T07:25:31.087Z,102156.09
2018-12-25T07:28:18.677Z,102145.35
2018-12-25T07:30:47.164Z,102148.16
2018-12-25T07:33:34.757Z,102136.06
2018-12-25T07:36:03.566Z,102141.99
2018-12-25T07:38:51.148Z,102147.91
2018-12-25T07:41:38.747Z,102134.37
2018-12-25T07:44:07.300Z,102121.11
2018-12-25T07:46:35.779Z,102121.91
2018-12-25T07:49:04.254Z,102127.35
2018-12-25T07:51:32.728Z,102122.69
2018-12-25T07:54:01.196Z,102120.86
2018-12-25T07:56:48.799Z,102126.50
2018-12-25T07:59:36.512Z,102129.50
2018-12-25T08:02:24.339Z,102146.21
2018-12-25T08:04:52.808Z,102145.22
2018-12-25T08:07:21.288Z,102140.09
2018-12-25T08:12:37.207Z,102146.21
2018-12-25T08:15:45.619Z,102148.21
2018-12-25T08:18:14.089Z,102152.75
2018-12-25T08:20:42.586Z,102144.83
2018-12-25T08:23:30.177Z,102151.31
2018-12-25T08:26:17.916Z,102157.34
2018-12-25T08:29:05.630Z,102147.59
2018-12-25T08:31:34.121Z,102134.89
2018-12-25T08:34:02.589Z,102137.03
2018-12-25T08:36:50.318Z,102143.13
2018-12-25T08:39:38.046Z,102134.87
2018-12-25T08:42:06.553Z,102139.55
2018-12-25T08:44:35.030Z,102132.52
2018-12-25T08:47:22.633Z,102130.36
2018-12-25T08:50:10.399Z,102123.41
2018-12-25T08:52:38.954Z,102126.48
2018-12-25T08:55:26.677Z,102123.81
2018-12-25T08:58:14.410Z,102132.00
2018-12-25T09:00:42.884Z,102135.42
2018-12-25T09:03:30.709Z,102135.19
2018-12-25T09:06:18.454Z,102135.37
2018-12-25T09:12:00.029Z,102149.77
2018-12-25T09:14:28.502Z,102152.42
2018-12-25T09:20:10.502Z,102169.12
2018-12-25T09:22:39.022Z,102168.72
2018-12-25T09:25:26.622Z,102162.93
2018-12-25T09:27:55.100Z,102161.62
2018-12-25T09:30:42.690Z,102154.99
2018-12-25T09:36:04.066Z,102157.95
2018-12-25T09:38:51.802Z,102164.17
2018-12-25T09:41:39.530Z,102175.48
2018-12-25T09:44:20.638Z,102170.62
2018-12-25T09:47:08.376Z,102174.62
2018-12-25T09:49:36.848Z,102166.20
2018-12-25T09:52:05.335Z,102162.81
2018-12-25T09:54:53.163Z,102172.52
2018-12-25T09:57:40.888Z,102172.06
2018-12-25T10:00:49.297Z,102171.97
2018-12-25T10:03:17.789Z,102169.59
2018-12-25T10:06:05.605Z,102164.06
2018-12-25T10:08:34.088Z,102159.92
2018-12-25T10:16:43.277Z,102163.92
2018-12-25T10:19:11.760Z,102163.53
2018-12-25T10:22:03.018Z,102159.02
2018-12-25T10:24:29.781Z,102164.45
2018-12-25T10:26:58.257Z,102166.29
2018-12-25T10:29:26.841Z,102172.34
2018-12-25T10:31:55.319Z,102168.57
2018-12-25T10:34:23.806Z,102165.23
2018-12-25T10:37:11.524Z,102150.02
2018-12-25T10:39:40.007Z,102156.85
2018-12-25T10:42:08.479Z,102155.16
2018-12-25T10:44:36.970Z,102152.08
2018-12-25T10:47:05.430Z,102148.75
2018-12-25T10:49:53.028Z,102150.95
2018-12-25T10:52:40.616Z,102158.60
2018-12-25T10:55:28.348Z,102153.16
2018-12-25T10:57:56.833Z,102142.98
2018-12-25T11:03:20.085Z,102140.21
2018-12-25T11:06:07.812Z,102137.86
2018-12-25T11:08:55.765Z,102125.33
2018-12-25T11:11:43.495Z,102118.77
2018-12-25T11:14:11.980Z,102121.61
2018-12-25T11:19:27.902Z,102126.13
2018-12-25T11:22:19.815Z,102122.55
2018-12-25T11:24:45.701Z,102123.97
2018-12-25T11:30:01.620Z,102127.30
2018-12-25T11:32:49.335Z,102129.73
2018-12-25T11:35:17.816Z,102122.84
2018-12-25T11:38:05.532Z,102125.63
2018-12-25T11:43:07.701Z,102114.14
2018-12-25T11:45:55.429Z,102108.48
2018-12-25T11:48:23.901Z,102112.88
2018-12-25T11:50:52.383Z,102112.12
2018-12-25T11:53:20.859Z,102105.77
2018-12-25T11:56:08.803Z,102112.09
2018-12-25T11:58:56.515Z,102115.63
2018-12-25T12:01:25.058Z,102121.64
2018-12-25T12:04:12.688Z,102114.64
2018-12-25T12:07:00.587Z,102110.68
2018-12-25T12:09:48.241Z,102105.73
2018-12-25T12:12:36.128Z,102111.61
2018-12-25T12:15:44.583Z,102098.01
2018-12-25T12:18:13.123Z,102107.42
2018-12-25T12:25:50.408Z,102112.50
2018-12-25T12:28:18.881Z,102113.06
2018-12-25T12:31:06.609Z,102116.95
2018-12-25T12:33:54.204Z,102134.65
2018-12-25T12:36:42.070Z,102128.56
2018-12-25T12:39:10.499Z,102132.86
2018-12-25T12:41:58.097Z,102128.56
2018-12-25T12:44:45.691Z,102123.68
2018-12-25T12:47:33.419Z,102123.29
2018-12-25T12:50:01.895Z,102123.84
2018-12-25T12:52:30.383Z,102120.70
2018-12-25T12:58:05.643Z,102114.64
2018-12-25T13:00:53.360Z,102109.62
2018-12-25T13:03:40.960Z,102105.63
2018-12-25T13:06:09.429Z,102111.27
2018-12-25T13:08:37.908Z,102106.13
2018-12-25T13:13:53.817Z,102110.12
2018-12-25T13:16:41.405Z,102121.87
2018-12-25T13:19:09.890Z,102128.27
2018-12-25T13:24:25.818Z,102122.94
2018-12-25T13:26:54.281Z,102124.34
2018-12-25T13:29:41.876Z,102128.36
2018-12-25T13:34:44.967Z,102118.98
2018-12-25T13:37:13.451Z,102124.90
2018-12-25T13:40:01.170Z,102114.45
2018-12-25T13:42:29.655Z,102123.41
2018-12-25T13:45:10.861Z,102123.16
2018-12-25T13:47:58.470Z,102131.09
2018-12-25T13:50:46.275Z,102141.97
2018-12-25T13:55:48.660Z,102131.65
2018-12-25T13:58:24.722Z,102133.31
2018-12-25T14:01:12.544Z,102138.67
2018-12-25T14:03:41.028Z,102150.88
2018-12-25T14:06:09.503Z,102147.67
2018-12-25T14:08:57.334Z,102145.09
2018-12-25T14:11:45.171Z,102144.61
2018-12-25T14:14:13.648Z,102141.30
2018-12-25T14:17:01.363Z,102142.97
2018-12-25T14:19:29.845Z,102147.34
2018-12-25T14:24:45.760Z,102148.95
2018-12-25T14:27:14.233Z,102143.73
2018-12-25T14:29:42.711Z,102148.75
2018-12-25T14:35:17.764Z,102146.50
2018-12-25T14:37:46.237Z,102144.35
2018-12-25T14:40:54.647Z,102140.21
2018-12-25T14:43:23.120Z,102144.98
2018-12-25T14:45:51.601Z,102146.45
2018-12-25T14:48:20.073Z,102145.98
2018-12-25T14:51:07.669Z,102149.96
2018-12-25T14:56:23.588Z,102152.25
2018-12-25T14:59:11.313Z,102158.73
2018-12-25T15:01:39.786Z,102160.91
2018-12-25T15:06:42.977Z,102157.88
2018-12-25T15:09:30.807Z,102154.94
2018-12-25T15:12:18.400Z,102146.65
2018-12-25T15:14:46.981Z,102143.72
2018-12-25T15:17:15.432Z,102141.00
2018-12-25T15:19:43.924Z,102137.86
2018-12-25T15:22:12.395Z,102137.66
2018-12-25T15:24:40.875Z,102143.17
2018-12-25T15:27:28.466Z,102148.44
2018-12-25T15:29:56.949Z,102148.17
2018-12-25T15:32:25.422Z,102144.43
2018-12-25T15:35:13.283Z,102141.72
2018-12-25T15:37:41.759Z,102143.11
2018-12-25T15:42:44.190Z,102148.05
2018-12-25T15:45:12.670Z,102144.41
2018-12-25T15:48:00.397Z,102150.67
2018-12-25T15:50:28.876Z,102149.30
2018-12-25T15:53:16.464Z,102144.30
2018-12-25T15:55:44.944Z,102144.22
2018-12-25T15:58:53.329Z,102146.23
2018-12-25T16:01:21.815Z,102151.12
2018-12-25T16:06:56.855Z,102142.95
2018-12-25T16:09:25.326Z,102145.28
2018-12-25T16:12:13.101Z,102135.51
2018-12-25T16:14:41.576Z,102139.36
2018-12-25T16:17:10.063Z,102135.03
2018-12-25T16:19:38.537Z,102132.47
2018-12-25T16:22:07.019Z,102133.45
2018-12-25T16:27:22.931Z,102131.80
2018-12-25T16:29:51.406Z,102129.38
2018-12-25T16:32:39.160Z,102130.40
2018-12-25T16:35:07.632Z,102126.94
2018-12-25T16:37:36.113Z,102128.98
2018-12-25T16:40:44.506Z,102133.67
2018-12-25T16:43:12.983Z,102127.14
2018-12-25T16:48:15.607Z,102136.30
2018-12-25T16:50:44.097Z,102132.02
2018-12-25T16:53:12.578Z,102127.83
2018-12-25T16:58:40.214Z,102120.17
2018-12-25T17:00:58.706Z,102116.39
2018-12-25T17:03:46.512Z,102114.09
2018-12-25T17:06:14.994Z,102117.58
2018-12-25T17:08:43.469Z,102121.26
2018-12-25T17:11:31.193Z,102125.34
2018-12-25T17:13:59.663Z,102125.14
2018-12-25T17:16:47.396Z,102121.30
2018-12-25T17:19:35.386Z,102112.85
2018-12-25T17:22:23.090Z,102117.91
2018-12-25T17:28:18.916Z,102118.16
2018-12-25T17:31:06.641Z,102113.89
2018-12-25T17:33:35.121Z,102113.63
2018-12-25T17:36:03.592Z,102121.76
2018-12-25T17:41:05.936Z,102120.59
2018-12-25T17:43:46.954Z,102124.55
2018-12-25T17:46:15.429Z,102122.59
2018-12-25T17:49:03.259Z,102126.67
2018-12-25T17:51:50.978Z,102116.54
2018-12-25T17:54:19.456Z,102117.15
2018-12-25T17:56:47.934Z,102118.34
2018-12-25T17:59:35.760Z,102117.53
2018-12-25T18:02:23.578Z,102118.64
2018-12-25T18:05:12.051Z,102115.55
2018-12-25T18:07:41.379Z,102120.17
2018-12-25T18:10:49.775Z,102120.80
2018-12-25T18:13:18.252Z,102126.98
2018-12-25T18:16:05.844Z,102131.02
2018-12-25T18:18:53.669Z,102127.20
2018-12-25T18:21:41.389Z,102130.26
2018-12-25T18:24:29.122Z,102138.37
2018-12-25T18:27:16.717Z,102144.59
2018-12-25T18:32:38.268Z,102145.22
2018-12-25T18:35:26.094Z,102144.77
2018-12-25T18:40:42.057Z,102142.05
2018-12-25T18:43:29.807Z,102147.59
2018-12-25T18:49:06.659Z,102142.20
2018-12-25T18:51:35.132Z,102138.18
2018-12-25T18:54:03.614Z,102138.16
2018-12-25T18:56:51.353Z,102134.38
2018-12-25T18:59:19.926Z,102141.78
2018-12-25T19:01:48.540Z,102131.25
2018-12-25T19:04:17.093Z,102132.20
2018-12-25T19:09:52.361Z,102126.94
2018-12-25T19:12:40.285Z,102123.19
2018-12-25T19:15:48.815Z,102122.94
2018-12-25T19:18:17.360Z,102132.47
2018-12-25T19:20:45.979Z,102132.28
2018-12-25T19:23:33.640Z,102128.27
2018-12-25T19:26:21.421Z,102125.98
2018-12-25T19:28:49.919Z,102126.17
2018-12-25T19:31:18.395Z,102129.22
2018-12-25T19:33:46.863Z,102126.09
2018-12-25T19:38:49.880Z,102127.30
2018-12-25T19:41:18.473Z,102128.16
2018-12-25T19:44:06.240Z,102124.72
2018-12-25T19:46:34.765Z,102130.53
2018-12-25T19:49:03.284Z,102128.84
2018-12-25T19:51:51.016Z,102127.31
2018-12-25T19:54:44.550Z,102127.10
2018-12-25T19:57:09.908Z,102128.05
2018-12-25T19:59:39.201Z,102132.95
2018-12-25T20:02:07.819Z,102125.81
2018-12-25T20:05:16.272Z,102126.59
2018-12-25T20:11:37.710Z,102131.15
2018-12-25T20:14:44.818Z,102128.95
2018-12-25T20:17:53.243Z,102129.17
2018-12-25T20:21:00.394Z,102129.09
2018-12-25T20:24:07.503Z,102129.33
2018-12-25T20:27:14.705Z,102127.73
2018-12-25T20:30:23.161Z,102127.80
2018-12-25T20:33:30.284Z,102122.48
2018-12-25T20:36:38.689Z,102122.08
2018-12-25T20:39:47.104Z,102117.94
2018-12-25T20:42:55.495Z,102111.16
2018-12-25T20:46:03.988Z,102106.41
2018-12-25T20:49:12.543Z,102102.75
2018-12-25T20:52:21.041Z,102109.04
2018-12-25T20:55:28.221Z,102108.52
2018-12-25T20:58:36.764Z,102105.33
2018-12-25T21:01:45.362Z,102108.18
2018-12-25T21:04:52.484Z,102116.31
2018-12-25T21:07:59.632Z,102108.20
2018-12-25T21:11:06.751Z,102110.20
2018-12-25T21:14:15.260Z,102104.77
2018-12-25T21:17:23.813Z,102099.52
2018-12-25T21:20:32.369Z,102103.72
2018-12-25T21:23:39.597Z,102097.30
2018-12-25T21:26:46.772Z,102101.02
2018-12-25T21:29:15.315Z,102103.02
2018-12-25T21:34:39.255Z,102095.93
2018-12-25T21:37:47.943Z,102092.83
2018-12-25T21:40:16.624Z,102093.28
2018-12-25T21:45:39.686Z,102096.41
2018-12-25T21:51:03.261Z,102097.94
2018-12-25T21:54:11.847Z,102099.62
2018-12-25T21:59:48.653Z,102099.48
2018-12-25T22:02:57.158Z,102099.03
2018-12-25T22:05:25.673Z,102097.91
2018-12-25T22:07:54.297Z,102093.91
2018-12-25T22:10:22.974Z,102096.51
2018-12-25T22:12:51.518Z,102089.46
2018-12-25T22:15:20.352Z,102092.52
2018-12-25T22:17:50.396Z,102089.34
2018-12-25T22:20:58.935Z,102084.73
2018-12-25T22:23:27.605Z,102091.28
2018-12-25T22:26:15.451Z,102086.62
2018-12-25T22:28:44.018Z,102085.17
2018-12-25T22:31:31.833Z,102077.27
2018-12-25T22:34:00.410Z,102078.58
2018-12-25T22:36:29.008Z,102079.54
2018-12-25T22:39:16.872Z,102080.90
2018-12-25T22:41:45.464Z,102078.52
2018-12-25T22:44:14.044Z,102070.72
2018-12-25T22:46:42.628Z,102076.17
2018-12-25T22:49:30.466Z,102074.77
2018-12-25T22:51:59.023Z,102071.59
2018-12-25T22:54:27.589Z,102075.23
2018-12-25T22:59:43.615Z,102075.45
2018-12-25T23:02:31.469Z,102078.81
2018-12-25T23:05:00.147Z,102070.58
2018-12-25T23:07:28.676Z,102065.86
2018-12-25T23:09:57.335Z,102072.95
2018-12-25T23:12:26.039Z,102063.91
2018-12-25T23:14:54.626Z,102069.77
2018-12-25T23:17:42.393Z,102062.48
2018-12-25T23:20:11.026Z,102065.07
2018-12-25T23:22:39.541Z,102058.37
2018-12-25T23:25:08.157Z,102061.99
2018-12-25T23:27:36.741Z,102055.14
2018-12-25T23:30:24.555Z,102065.51
2018-12-25T23:32:53.153Z,102056.22
2018-12-25T23:35:21.686Z,102058.91
2018-12-25T23:37:50.272Z,102051.27
2018-12-25T23:40:18.791Z,102054.58
2018-12-25T23:42:47.440Z,102046.80
2018-12-25T23:45:16.091Z,102052.83
2018-12-25T23:47:44.570Z,102047.39
2018-12-25T23:50:13.058Z,102050.41
2018-12-25T23:52:41.537Z,102049.58
2018-12-25T23:55:29.404Z,102045.41
2018-12-25T23:57:57.848Z,102048.56
